Tishomingo, Mississippi
Current Conditions -  °F | °C
As of 4:15 PM on Thursday 18 Dec 2014 (Local Time) from KCRX Reporting Station
Overcast Overcast  
Wind Chill: 46°   Ceiling: 3700
Heat Index: 46°   Visibility: 10mi
Dew Point: 34°   Wind: 0mph
Humidity: 62%   Direction: NA
Pressure: 30.17"   Gusts: NA
Location:  34.64°N, 88.23°W
Report Text: KCRX 182215Z AUTO 00000KT 10SM OVC037 08/01 A3017 RMK AO2
Loading
Personal Weather Stations






























Interactive Weather Map New forecast layout! Learn more

10-Day Weather Forecast

Advertisements
Track Severe Weather on mobile